General San Martin, Argentina

11:51 PM -03 on June 27, 2017 (GMT -0300)
Villa Ballester | | Change Station

Elev 120 ft 34.54 °S, 58.55 °W | Updated 1 minute ago

Partly Cloudy
Partly Cloudy
54.9 °F
Feels Like 54.9 °F
N
8.3
Wind Variable Wind from SW
Gusts 10.7 mph

Today
High -- | Low -- °F
--% Chance of Precip.
Yesterday
High -- | Low -- °F
Precip. -- in
Pressure 30.09 in
Visibility 6.2 miles
Clouds Scattered Clouds 900 ft
Scattered Clouds 1500 ft
Dew Point 53 °F
Humidity 93%
Rainfall 0.00 in
Snow Depth Not available.
8:01 AM 5:52 PM
Waxing Crescent, 21% visible
SPECI SABE 280224Z 21006KT 150V250 9999 SCT009 SCT015 13/11 Q1019
Pressure 30.09 in
Visibility 6.2 miles
Clouds Scattered Clouds 900 ft
Scattered Clouds 1500 ft
Dew Point 53 °F
Humidity 93%
Rainfall 0.00 in
Snow Depth Not available.
8:01 AM 5:52 PM
Waxing Crescent, 21% visible
SPECI SABE 280224Z 21006KT 150V250 9999 SCT009 SCT015 13/11 Q1019

Get Severe Weather Alerts

Thanks for signing up!

Be on the lookout for a verification email in your inbox.

You'll start receiving the daily forecast at 6 AM.

×

10-Day Weather Forecast

Almanac

Astronomy

Jun. 27, 2017 Rise Set
Actual Time
Civil Twilight
Nautical Twilight
Astronomical Twilight
Moon
Length of Visible Light
Length of Day
Tomorrow will be .
, % of the Moon is Illuminated

Today's Extremes

Country Highs Country Lows

Community

WunderPhotos

Category 6

Welcome to Category 6. This is the collective home for Weather Underground's featured writeups by Dr. Jeff Masters (right), Bob Henson (left), Chris Burt, and other regular contributors.

Nearby

Air Quality

  Air Quality AQ Index Pollutant
Not available.

Snow Depth

Station Depth Elevation

Earthquake Activity

City Distance Mag. Time & Date
Minimum magnitude displayed is 2.5.

Coastal Water Temperatures

Place Temperature

Stations

Nearby Weather Stations

Station Location Temp. Windchill Dew Point Humidity Wind Precip. Elev Updated Type